Time;durP1;ratioP1;P1;durP2;ratioP2;P2;SDS_P1;SDS_P2;PMS_P1;PMS_P2;Temp;Humidity;BMP_temperature;BMP_pressure;BME280_temperature;BME280_humidity;BME280_pressure;Samples;Min_cycle;Max_cycle;Signal;HPM_P1;HPM_P2
2023/02/09 00:02:08;;;;;;;11.07;8.25;;;0.70;99.90;;;;;;5013441;28;20038;-69
2023/02/09 00:04:34;;;;;;;12.98;8.95;;;0.60;99.90;;;;;;5013499;28;20042;-70
2023/02/09 00:07:00;;;;;;;12.05;7.97;;;0.60;99.90;;;;;;5012114;28;20050;-70
2023/02/09 00:09:26;;;;;;;11.48;7.28;;;0.60;99.90;;;;;;5013254;28;20034;-70
2023/02/09 00:14:36;;;;;;;15.13;8.55;;;0.60;99.90;;;;;;5012371;28;20050;-70
2023/02/09 00:17:02;;;;;;;12.60;8.43;;;0.50;99.90;;;;;;5013258;28;20491;-70
2023/02/09 00:19:27;;;;;;;12.90;7.68;;;0.50;99.90;;;;;;5013033;28;20081;-70
2023/02/09 00:21:54;;;;;;;11.65;8.10;;;0.50;99.90;;;;;;5013089;28;20387;-70
2023/02/09 00:24:19;;;;;;;11.77;8.02;;;0.50;99.90;;;;;;5011971;28;20100;-70
2023/02/09 00:26:45;;;;;;;11.93;7.68;;;0.50;99.90;;;;;;5011911;28;20038;-70
2023/02/09 00:29:11;;;;;;;12.25;8.90;;;0.50;99.90;;;;;;5012950;28;20378;-70
2023/02/09 00:31:37;;;;;;;11.85;8.10;;;0.50;99.90;;;;;;5013197;28;20034;-70
2023/02/09 00:34:04;;;;;;;11.43;7.43;;;0.50;99.90;;;;;;5011705;28;20073;-70
2023/02/09 00:36:30;;;;;;;14.48;8.63;;;0.60;99.90;;;;;;5012920;28;20133;-70
2023/02/09 00:38:56;;;;;;;12.43;7.50;;;0.60;99.90;;;;;;5011429;28;20141;-70
2023/02/09 00:42:04;;;;;;;12.25;8.00;;;0.50;99.90;;;;;;5011954;28;20041;-70
2023/02/09 00:44:08;;;;;;;13.32;7.95;;;0.60;99.90;;;;;;5012575;28;20422;-70
2023/02/09 00:46:33;;;;;;;12.98;8.50;;;0.50;99.90;;;;;;5011480;28;20053;-70
2023/02/09 00:48:59;;;;;;;11.65;7.63;;;0.50;99.90;;;;;;5011279;28;20034;-70
2023/02/09 00:51:25;;;;;;;12.82;8.80;;;0.50;99.90;;;;;;5012578;28;20424;-69
2023/02/09 00:53:50;;;;;;;11.88;7.65;;;0.50;99.90;;;;;;5012596;28;20042;-69
2023/02/09 00:56:16;;;;;;;13.48;7.47;;;0.50;99.90;;;;;;5012794;28;20422;-70
2023/02/09 00:58:41;;;;;;;10.57;7.50;;;0.50;99.90;;;;;;5012695;28;20120;-70
2023/02/09 01:01:12;;;;;;;13.65;8.60;;;0.50;99.90;;;;;;5011191;28;20183;-69
2023/02/09 01:03:38;;;;;;;11.90;8.10;;;0.50;99.90;;;;;;5010910;28;20050;-69
2023/02/09 01:06:04;;;;;;;12.30;7.40;;;0.40;99.90;;;;;;5012265;28;20038;-70
2023/02/09 01:08:29;;;;;;;18.92;8.65;;;0.50;99.90;;;;;;5011258;28;20045;-70
2023/02/09 01:10:55;;;;;;;16.70;8.77;;;0.50;99.90;;;;;;5012514;28;20048;-70
2023/02/09 01:13:20;;;;;;;11.70;8.07;;;0.40;99.90;;;;;;5012086;28;20125;-70
2023/02/09 01:15:46;;;;;;;12.38;7.93;;;0.40;99.90;;;;;;5012240;28;20117;-70
2023/02/09 01:18:11;;;;;;;10.18;7.25;;;0.40;99.90;;;;;;5012177;28;20048;-70
2023/02/09 01:20:40;;;;;;;12.25;8.15;;;0.40;99.90;;;;;;5010748;28;20046;-70
2023/02/09 01:23:05;;;;;;;12.65;8.60;;;0.40;99.90;;;;;;5011660;28;20042;-70
2023/02/09 01:25:31;;;;;;;14.25;8.55;;;0.40;99.90;;;;;;5010808;28;20042;-70
2023/02/09 01:27:56;;;;;;;10.73;8.43;;;0.40;99.90;;;;;;5012062;28;20038;-70
2023/02/09 01:30:22;;;;;;;23.33;8.52;;;0.40;99.90;;;;;;5012019;28;20439;-70
2023/02/09 01:32:47;;;;;;;12.10;7.47;;;0.40;99.90;;;;;;5011547;28;20121;-69
2023/02/09 01:35:13;;;;;;;12.45;7.97;;;0.40;99.90;;;;;;5011719;28;20187;-69
2023/02/09 01:37:38;;;;;;;12.18;7.88;;;0.40;99.90;;;;;;5010289;28;20643;-68
2023/02/09 01:40:05;;;;;;;11.70;8.38;;;0.40;99.90;;;;;;5011819;28;20497;-69
2023/02/09 01:42:31;;;;;;;13.13;8.07;;;0.40;99.90;;;;;;5011571;28;20069;-68
2023/02/09 01:45:23;;;;;;;13.25;8.27;;;0.40;99.90;;;;;;5010484;28;20418;-68
2023/02/09 01:48:02;;;;;;;14.48;8.88;;;0.40;99.90;;;;;;5010507;28;20042;-69
2023/02/09 01:50:31;;;;;;;13.57;8.45;;;0.30;99.90;;;;;;5010503;28;20034;-69
2023/02/09 01:52:56;;;;;;;15.23;8.50;;;0.40;99.90;;;;;;5011303;28;20073;-69
2023/02/09 01:55:26;;;;;;;14.10;9.00;;;0.40;99.90;;;;;;5010158;28;20080;-69
2023/02/09 01:57:56;;;;;;;15.43;7.97;;;0.30;99.90;;;;;;5011344;28;20042;-68
2023/02/09 02:00:23;;;;;;;13.23;8.52;;;0.40;99.90;;;;;;5011352;28;20121;-68
2023/02/09 02:02:53;;;;;;;14.93;8.57;;;0.40;99.90;;;;;;5011350;28;20481;-69
2023/02/09 02:05:20;;;;;;;13.98;8.48;;;0.30;99.90;;;;;;5011368;28;20050;-69
2023/02/09 02:08:10;;;;;;;11.68;8.30;;;0.40;99.90;;;;;;5011348;28;20112;-68
2023/02/09 02:10:35;;;;;;;14.93;8.45;;;0.40;99.90;;;;;;5011235;28;20108;-68
2023/02/09 02:13:02;;;;;;;15.20;8.90;;;0.30;99.90;;;;;;5011307;28;20143;-69
2023/02/09 02:15:35;;;;;;;14.02;8.73;;;0.30;99.90;;;;;;5009957;28;20091;-68
2023/02/09 02:18:18;;;;;;;13.93;8.80;;;0.40;99.90;;;;;;5010158;28;20477;-68
2023/02/09 02:21:03;;;;;;;;;;;0.40;99.90;;;;;;5010128;28;20129;-69
2023/02/09 02:23:34;;;;;;;13.95;7.90;;;0.30;99.90;;;;;;5009523;28;19924;-69
2023/02/09 02:26:17;;;;;;;13.88;7.97;;;0.30;99.90;;;;;;5011156;28;20046;-69
2023/02/09 02:29:12;;;;;;;13.48;8.00;;;0.30;99.90;;;;;;5009600;28;20510;-69
2023/02/09 02:31:53;;;;;;;16.55;8.98;;;0.30;99.90;;;;;;5009730;28;20067;-69
2023/02/09 02:34:30;;;;;;;13.45;7.68;;;0.30;99.90;;;;;;5011174;28;20515;-69
2023/02/09 02:37:32;;;;;;;13.13;9.05;;;0.30;99.90;;;;;;5011161;28;20033;-68
2023/02/09 02:40:05;;;;;;;14.50;8.05;;;0.30;99.90;;;;;;5009626;28;20137;-68
2023/02/09 02:43:04;;;;;;;13.35;8.30;;;0.30;99.90;;;;;;5010824;28;20045;-68
2023/02/09 02:45:43;;;;;;;13.57;8.00;;;0.30;99.90;;;;;;5009518;28;20042;-69
2023/02/09 02:48:38;;;;;;;12.68;7.88;;;0.30;99.90;;;;;;5010928;28;20549;-68
2023/02/09 02:51:09;;;;;;;13.23;8.50;;;0.20;99.90;;;;;;5010873;28;20066;-68
2023/02/09 02:53:39;;;;;;;14.23;7.50;;;0.30;99.90;;;;;;5010466;28;20046;-69
2023/02/09 02:56:14;;;;;;;13.95;8.05;;;0.20;99.90;;;;;;5009576;28;20038;-68
2023/02/09 02:58:42;;;;;;;15.20;7.72;;;0.20;99.90;;;;;;5010700;28;20526;-68
2023/02/09 03:01:12;;;;;;;13.43;7.88;;;0.30;99.90;;;;;;5009368;28;20050;-68
2023/02/09 03:03:41;;;;;;;15.05;8.35;;;0.30;99.90;;;;;;5009362;28;20069;-69
2023/02/09 03:06:08;;;;;;;15.00;7.82;;;0.30;99.90;;;;;;5010591;28;20410;-69
2023/02/09 03:08:51;;;;;;;12.07;7.45;;;0.30;99.90;;;;;;4993082;28;20042;-68
2023/02/09 03:11:19;;;;;;;13.98;7.75;;;0.30;99.90;;;;;;5008984;28;20052;-69
2023/02/09 03:13:51;;;;;;;14.00;8.70;;;0.30;99.90;;;;;;4992363;28;20034;-68
2023/02/09 03:16:20;;;;;;;15.27;9.10;;;0.30;99.90;;;;;;5010546;28;20042;-69
2023/02/09 03:19:12;;;;;;;13.02;9.05;;;0.30;99.90;;;;;;5010597;28;20042;-68
2023/02/09 03:21:54;;;;;;;10.88;7.03;;;0.40;99.90;;;;;;5009248;28;20046;-69
2023/02/09 03:24:47;;;;;;;12.95;7.40;;;0.30;99.90;;;;;;5010378;28;20490;-69
2023/02/09 03:27:19;;;;;;;14.57;7.18;;;0.40;99.90;;;;;;5009302;28;20376;-69
2023/02/09 03:29:47;;;;;;;17.15;8.55;;;0.40;99.90;;;;;;5050572;23;20050;-76
2023/02/09 03:32:15;;;;;;;12.95;7.75;;;0.40;99.90;;;;;;5033183;28;20406;-76
2023/02/09 03:34:41;;;;;;;18.67;8.02;;;0.40;99.90;;;;;;5016538;28;20041;-75
2023/02/09 03:37:06;;;;;;;16.77;8.48;;;0.40;99.90;;;;;;5034432;28;20041;-76
2023/02/09 03:39:32;;;;;;;11.02;7.50;;;0.40;99.90;;;;;;5032919;28;20048;-75
2023/02/09 03:41:58;;;;;;;13.15;7.30;;;0.40;99.90;;;;;;5033542;28;20038;-75
2023/02/09 03:44:26;;;;;;;15.63;8.95;;;0.40;99.90;;;;;;5032869;28;20490;-75
2023/02/09 03:47:03;;;;;;;14.20;8.48;;;0.40;99.90;;;;;;5034341;28;20129;-75
2023/02/09 03:49:32;;;;;;;15.05;8.60;;;0.40;99.90;;;;;;5032952;28;20482;-75
2023/02/09 03:52:01;;;;;;;14.30;8.00;;;0.40;99.90;;;;;;5034128;28;20528;-75
2023/02/09 03:54:29;;;;;;;15.02;7.88;;;0.40;99.90;;;;;;5033056;28;20037;-75
2023/02/09 03:56:55;;;;;;;14.25;8.13;;;0.40;99.90;;;;;;5033871;28;20071;-75
2023/02/09 03:59:20;;;;;;;10.52;7.47;;;0.30;99.90;;;;;;5034201;28;20398;-75
2023/02/09 04:01:47;;;;;;;12.90;7.75;;;0.30;99.90;;;;;;5032826;28;20034;-76
2023/02/09 04:04:12;;;;;;;11.75;7.60;;;0.40;99.90;;;;;;5033689;28;20120;-75
2023/02/09 04:06:38;;;;;;;12.35;7.75;;;0.30;99.90;;;;;;5032650;28;20125;-75
2023/02/09 04:09:05;;;;;;;10.80;6.75;;;0.30;99.90;;;;;;5033819;28;20049;-75
2023/02/09 04:11:31;;;;;;;11.80;8.30;;;0.30;99.90;;;;;;5032615;28;20086;-75
2023/02/09 04:13:57;;;;;;;14.73;7.93;;;0.30;99.90;;;;;;5032482;28;20132;-75
2023/02/09 04:16:22;;;;;;;11.98;7.32;;;0.30;99.90;;;;;;5032723;28;20041;-76
2023/02/09 04:18:48;;;;;;;11.90;6.97;;;0.30;99.90;;;;;;5033811;28;20541;-76
2023/02/09 04:21:13;;;;;;;12.00;6.93;;;0.30;99.90;;;;;;5033872;28;20041;-76
2023/02/09 04:23:39;;;;;;;11.52;6.15;;;0.40;99.90;;;;;;5033324;28;20152;-75
2023/02/09 04:26:05;;;;;;;13.57;7.97;;;0.30;99.90;;;;;;5033457;28;20073;-75
2023/02/09 04:28:31;;;;;;;12.52;6.43;;;0.30;99.90;;;;;;5015878;28;20116;-76
2023/02/09 04:30:56;;;;;;;11.52;6.82;;;0.30;99.90;;;;;;5033914;28;20532;-76
2023/02/09 04:33:23;;;;;;;14.50;7.22;;;0.40;99.90;;;;;;5032135;28;20072;-76
2023/02/09 04:35:50;;;;;;;12.98;6.78;;;0.30;99.90;;;;;;5015706;28;20053;-76
2023/02/09 04:38:18;;;;;;;12.55;6.55;;;0.40;99.90;;;;;;5033512;28;20529;-76
2023/02/09 04:40:44;;;;;;;12.48;6.43;;;0.40;99.90;;;;;;5032379;28;20088;-76
2023/02/09 04:43:10;;;;;;;11.90;6.88;;;0.40;99.90;;;;;;5033180;28;20043;-76
2023/02/09 04:45:40;;;;;;;10.52;6.43;;;0.40;99.90;;;;;;5032358;28;20120;-76
2023/02/09 04:48:05;;;;;;;12.07;6.95;;;0.40;99.90;;;;;;5033356;28;20056;-76
2023/02/09 04:50:31;;;;;;;11.15;7.00;;;0.40;99.90;;;;;;5033418;28;20491;-76
2023/02/09 04:52:57;;;;;;;9.18;5.90;;;0.40;99.90;;;;;;5032986;28;20042;-76
2023/02/09 04:55:23;;;;;;;8.98;6.38;;;0.40;99.90;;;;;;5033000;28;20038;-76
2023/02/09 05:00:32;;;;;;;10.10;6.85;;;0.40;99.90;;;;;;5034607;28;20374;-76
2023/02/09 05:02:58;;;;;;;12.82;6.53;;;0.30;99.90;;;;;;5034215;28;20116;-76
2023/02/09 05:05:24;;;;;;;10.68;6.72;;;0.30;99.90;;;;;;5035020;28;20046;-76
2023/02/09 05:07:49;;;;;;;15.07;7.75;;;0.30;99.90;;;;;;5032850;28;20518;-76
2023/02/09 05:10:15;;;;;;;12.15;6.72;;;0.30;99.90;;;;;;5033382;28;20037;-76
2023/02/09 05:12:41;;;;;;;12.65;7.15;;;0.30;99.90;;;;;;5031641;28;20038;-76
2023/02/09 05:15:07;;;;;;;11.80;6.50;;;0.30;99.90;;;;;;5031910;28;20422;-76
2023/02/09 05:17:33;;;;;;;13.02;6.88;;;0.30;99.90;;;;;;5033079;28;20033;-76
2023/02/09 05:19:58;;;;;;;13.65;7.55;;;0.30;99.90;;;;;;5031898;28;20516;-76
2023/02/09 05:22:24;;;;;;;12.20;7.38;;;0.20;99.90;;;;;;5014578;28;20584;-76
2023/02/09 05:24:50;;;;;;;12.90;6.65;;;0.20;99.90;;;;;;5031139;28;20609;-76
2023/02/09 05:27:16;;;;;;;10.82;6.85;;;0.20;99.90;;;;;;5032649;28;20120;-76
2023/02/09 05:29:41;;;;;;;15.48;7.03;;;0.20;99.90;;;;;;5032199;28;20506;-76
2023/02/09 05:32:07;;;;;;;11.50;6.43;;;0.20;99.90;;;;;;5030771;28;20179;-76
2023/02/09 05:34:32;;;;;;;10.60;6.45;;;0.20;99.90;;;;;;5032464;28;20471;-76
2023/02/09 05:36:58;;;;;;;13.00;7.50;;;0.20;99.90;;;;;;5032353;28;20688;-76
2023/02/09 05:39:23;;;;;;;10.82;6.90;;;0.20;99.90;;;;;;5032508;28;20041;-76
2023/02/09 05:44:33;;;;;;;10.20;6.50;;;0.20;99.90;;;;;;5030759;28;20060;-76
2023/02/09 05:46:58;;;;;;;13.63;7.57;;;0.20;99.90;;;;;;5031810;28;20050;-76
2023/02/09 05:49:24;;;;;;;14.10;6.63;;;0.30;99.90;;;;;;5031782;28;20091;-76
2023/02/09 05:51:51;;;;;;;10.95;6.65;;;0.20;99.90;;;;;;5030866;28;20037;-76
2023/02/09 05:54:16;;;;;;;12.40;6.38;;;0.20;99.90;;;;;;5031308;28;20095;-76
2023/02/09 05:56:43;;;;;;;14.18;7.82;;;0.20;99.90;;;;;;5030575;28;20045;-76
2023/02/09 05:59:08;;;;;;;13.00;7.20;;;0.20;99.90;;;;;;5030505;28;20048;-76
2023/02/09 06:01:34;;;;;;;12.23;6.40;;;0.20;99.90;;;;;;5031558;28;20042;-76
2023/02/09 06:03:59;;;;;;;10.77;6.65;;;0.20;99.90;;;;;;5031512;28;20041;-76
2023/02/09 06:06:25;;;;;;;11.45;6.95;;;0.20;99.90;;;;;;5031563;28;20588;-76
2023/02/09 06:08:51;;;;;;;13.77;8.52;;;0.20;99.90;;;;;;5030599;28;20125;-76
2023/02/09 06:11:18;;;;;;;13.00;6.93;;;0.10;99.90;;;;;;5031753;28;20045;-75
2023/02/09 06:13:43;;;;;;;10.02;7.18;;;0.10;99.90;;;;;;5030053;28;20494;-75
2023/02/09 06:16:09;;;;;;;16.77;8.30;;;0.10;99.90;;;;;;5031646;28;20041;-75
2023/02/09 06:18:35;;;;;;;12.38;6.88;;;0.10;99.90;;;;;;5013707;28;20045;-75
2023/02/09 06:21:00;;;;;;;13.30;6.70;;;0.10;99.90;;;;;;5030271;28;20038;-75
2023/02/09 06:23:26;;;;;;;13.43;8.00;;;0.10;99.90;;;;;;5029920;28;20037;-75
2023/02/09 06:25:52;;;;;;;10.55;6.70;;;0.10;99.90;;;;;;5030118;28;20041;-75
2023/02/09 06:28:19;;;;;;;12.60;7.90;;;0.10;99.90;;;;;;5030048;28;20033;-75
2023/02/09 06:30:51;;;;;;;12.00;7.43;;;0.10;99.90;;;;;;5030173;28;20099;-75
2023/02/09 06:33:18;;;;;;;14.30;7.27;;;0.20;99.90;;;;;;5030086;28;20044;-75
2023/02/09 06:35:44;;;;;;;10.98;6.82;;;0.10;99.90;;;;;;5030105;28;20291;-75
2023/02/09 06:38:12;;;;;;;11.52;7.30;;;0.10;99.90;;;;;;5031420;28;20095;-75
2023/02/09 06:40:37;;;;;;;13.15;7.45;;;0.10;99.90;;;;;;5031718;28;20041;-75
2023/02/09 06:43:03;;;;;;;11.43;7.05;;;0.10;99.90;;;;;;5031028;28;20102;-75
2023/02/09 06:45:28;;;;;;;13.43;7.82;;;0.10;99.90;;;;;;5030081;28;20049;-75
2023/02/09 06:47:54;;;;;;;13.07;7.53;;;0.10;99.90;;;;;;5030223;28;20033;-75
2023/02/09 06:50:20;;;;;;;13.35;7.30;;;0.00;99.90;;;;;;5031489;28;20495;-75
2023/02/09 06:52:46;;;;;;;13.07;8.45;;;0.10;99.90;;;;;;5031253;28;20037;-75
2023/02/09 06:55:12;;;;;;;12.07;7.20;;;0.00;99.90;;;;;;5013819;28;20041;-75
2023/02/09 06:57:38;;;;;;;10.57;7.10;;;0.10;99.90;;;;;;5030034;28;20510;-75
2023/02/09 07:00:06;;;;;;;11.40;7.68;;;0.10;99.90;;;;;;5029883;28;20041;-75
2023/02/09 07:02:31;;;;;;;12.85;8.05;;;0.10;99.90;;;;;;5029860;28;20046;-75
2023/02/09 07:04:57;;;;;;;12.73;8.10;;;0.10;99.90;;;;;;5030529;28;20099;-75
2023/02/09 07:07:23;;;;;;;15.25;8.43;;;0.10;99.90;;;;;;5033682;28;20041;-75
2023/02/09 07:09:49;;;;;;;14.25;7.97;;;0.10;99.90;;;;;;5034834;28;20076;-75
2023/02/09 07:12:14;;;;;;;14.10;8.05;;;0.10;99.90;;;;;;5033435;28;20069;-75
2023/02/09 07:14:40;;;;;;;14.88;7.97;;;0.20;99.90;;;;;;5034707;28;20038;-75
2023/02/09 07:17:05;;;;;;;9.82;6.38;;;0.10;99.90;;;;;;5034714;28;20092;-75
2023/02/09 07:19:31;;;;;;;12.40;7.40;;;0.10;99.90;;;;;;5034771;28;20099;-75
2023/02/09 07:21:56;;;;;;;11.90;7.07;;;0.10;99.90;;;;;;5034506;28;20045;-75
2023/02/09 07:24:23;;;;;;;11.23;6.75;;;0.20;99.90;;;;;;5034781;28;20123;-75
2023/02/09 07:26:48;;;;;;;14.57;7.63;;;0.20;99.90;;;;;;5033387;28;20034;-75
2023/02/09 07:29:14;;;;;;;11.73;7.75;;;0.20;99.90;;;;;;5034316;28;20030;-75
2023/02/09 07:31:40;;;;;;;14.13;7.93;;;0.20;99.90;;;;;;5033441;28;20045;-75
2023/02/09 07:34:05;;;;;;;12.60;6.97;;;0.20;99.90;;;;;;5033382;28;20033;-75
2023/02/09 07:36:31;;;;;;;15.25;7.88;;;0.20;99.90;;;;;;5033227;28;20426;-75
2023/02/09 07:38:57;;;;;;;11.50;6.50;;;0.30;99.90;;;;;;5034315;28;20478;-75
2023/02/09 07:41:24;;;;;;;13.48;8.02;;;0.30;99.90;;;;;;5034307;28;20046;-75
2023/02/09 07:43:50;;;;;;;11.02;7.88;;;0.30;99.90;;;;;;5032606;28;20045;-75
2023/02/09 07:46:18;;;;;;;11.93;7.40;;;0.30;99.90;;;;;;5033959;28;20536;-75
2023/02/09 07:48:43;;;;;;;16.58;7.70;;;0.30;99.90;;;;;;5032761;28;20041;-75
2023/02/09 07:51:18;;;;;;;11.18;7.43;;;0.30;99.90;;;;;;5034241;28;20037;-75
2023/02/09 07:53:45;;;;;;;13.60;8.38;;;0.40;99.90;;;;;;5032691;28;20486;-75
2023/02/09 07:56:11;;;;;;;10.95;7.07;;;0.40;99.90;;;;;;5034014;28;20068;-75
2023/02/09 07:58:36;;;;;;;12.32;7.53;;;0.50;99.90;;;;;;5033704;28;20041;-74
2023/02/09 08:01:07;;;;;;;12.68;7.38;;;0.60;99.90;;;;;;5034103;28;20510;-75
2023/02/09 08:03:36;;;;;;;11.45;7.80;;;0.60;99.90;;;;;;5033705;28;20042;-75
2023/02/09 08:06:08;;;;;;;10.13;6.78;;;0.60;99.90;;;;;;5033757;28;20103;-75
2023/02/09 08:08:34;;;;;;;13.90;7.60;;;0.60;99.90;;;;;;5032629;28;20064;-74
2023/02/09 08:11:01;;;;;;;12.20;7.85;;;0.60;99.90;;;;;;5025733;28;20499;-75
2023/02/09 08:13:29;;;;;;;13.05;7.95;;;0.70;99.90;;;;;;5022043;28;20063;-75
2023/02/09 08:16:01;;;;;;;13.02;8.43;;;0.70;99.90;;;;;;5028483;28;20054;-75
2023/02/09 08:18:33;;;;;;;12.98;7.68;;;0.80;99.90;;;;;;5031801;28;20617;-75
2023/02/09 08:20:58;;;;;;;13.55;7.90;;;0.80;99.90;;;;;;5032607;28;20072;-75
2023/02/09 08:23:33;;;;;;;10.02;7.03;;;0.90;99.90;;;;;;5033213;28;20119;-74
2023/02/09 08:26:01;;;;;;;13.07;7.88;;;0.90;99.90;;;;;;5033529;28;20064;-74
2023/02/09 08:28:27;;;;;;;13.35;7.72;;;1.00;99.90;;;;;;5033308;28;20045;-74
2023/02/09 08:30:53;;;;;;;14.57;8.40;;;1.00;99.90;;;;;;5033482;28;20056;-75
2023/02/09 08:33:18;;;;;;;14.63;8.48;;;1.10;99.90;;;;;;5033063;28;20443;-74
2023/02/09 08:35:44;;;;;;;13.32;7.40;;;1.20;99.90;;;;;;5033294;28;20387;-74
2023/02/09 08:38:09;;;;;;;13.95;7.65;;;1.20;99.90;;;;;;5033055;28;20560;-74
2023/02/09 08:40:40;;;;;;;11.25;7.43;;;1.30;99.90;;;;;;5028872;28;20080;-74
2023/02/09 08:43:06;;;;;;;13.18;7.50;;;1.40;99.90;;;;;;5021832;28;20137;-74
2023/02/09 08:45:34;;;;;;;13.13;7.43;;;1.40;99.90;;;;;;5017586;28;20571;-74
2023/02/09 08:48:00;;;;;;;12.82;8.27;;;1.50;99.90;;;;;;5013185;28;20044;-74
2023/02/09 08:50:25;;;;;;;12.43;7.53;;;1.50;99.90;;;;;;5011964;28;20037;-74
2023/02/09 08:52:51;;;;;;;12.95;8.15;;;1.50;99.90;;;;;;5012821;28;20045;-75
2023/02/09 08:55:17;;;;;;;14.02;8.50;;;1.60;99.90;;;;;;5013291;28;20048;-75
2023/02/09 08:57:42;;;;;;;13.45;7.93;;;1.60;99.90;;;;;;5013035;28;20507;-74
2023/02/09 09:00:08;;;;;;;12.75;7.63;;;1.60;99.90;;;;;;5013026;28;20578;-74
2023/02/09 09:02:34;;;;;;;14.50;7.78;;;1.60;99.90;;;;;;5011371;28;20050;-74
2023/02/09 09:05:00;;;;;;;13.55;7.53;;;1.60;99.90;;;;;;5012709;28;20431;-74
2023/02/09 09:07:25;;;;;;;16.40;8.48;;;1.60;99.90;;;;;;5011485;28;20045;-74
2023/02/09 09:09:51;;;;;;;12.93;8.73;;;1.70;99.90;;;;;;5012597;28;20041;-74
2023/02/09 09:12:16;;;;;;;13.77;7.95;;;1.70;99.90;;;;;;5012346;28;20041;-74
2023/02/09 09:14:43;;;;;;;12.75;8.50;;;1.80;99.90;;;;;;5012839;28;20380;-73
2023/02/09 09:17:09;;;;;;;13.60;8.20;;;1.80;99.90;;;;;;5020021;28;20406;-73
2023/02/09 09:19:35;;;;;;;13.18;8.50;;;1.80;99.90;;;;;;5028857;28;20053;-74
2023/02/09 09:22:02;;;;;;;15.95;7.88;;;1.80;99.90;;;;;;5029156;28;20029;-74
2023/02/09 09:24:29;;;;;;;11.77;7.88;;;1.90;99.90;;;;;;5032042;28;20033;-74
2023/02/09 09:26:54;;;;;;;15.82;9.38;;;1.90;99.90;;;;;;5031460;28;20033;-74
2023/02/09 09:29:20;;;;;;;15.50;9.00;;;2.00;99.90;;;;;;5030565;28;20383;-74
2023/02/09 09:31:46;;;;;;;13.00;8.05;;;2.00;99.90;;;;;;5031377;28;20030;-74
2023/02/09 09:34:11;;;;;;;11.73;7.20;;;2.10;99.90;;;;;;5030142;28;20037;-74
2023/02/09 09:36:37;;;;;;;12.93;7.88;;;2.10;99.90;;;;;;5031078;28;20040;-74
2023/02/09 09:39:03;;;;;;;12.15;8.32;;;2.10;99.90;;;;;;5031266;28;20041;-73
2023/02/09 09:41:36;;;;;;;13.93;8.32;;;2.10;99.90;;;;;;5031634;28;20033;-73
2023/02/09 09:44:11;;;;;;;13.23;8.38;;;2.20;99.90;;;;;;5024513;28;20037;-74
2023/02/09 09:46:40;;;;;;;13.88;8.52;;;2.30;99.90;;;;;;5015682;28;20041;-74
2023/02/09 09:49:09;;;;;;;14.00;8.45;;;2.30;99.90;;;;;;5030950;28;20148;-73
2023/02/09 09:51:46;;;;;;;12.60;8.27;;;2.40;99.90;;;;;;5028467;28;20240;-74
2023/02/09 09:54:19;;;;;;;11.77;8.00;;;2.50;99.90;;;;;;5027792;28;20038;-73
2023/02/09 09:56:46;;;;;;;13.45;7.65;;;2.50;99.90;;;;;;5031018;28;20060;-73
2023/02/09 09:59:18;;;;;;;14.63;9.40;;;2.60;99.90;;;;;;5026884;28;20514;-73
2023/02/09 10:01:44;;;;;;;16.60;9.25;;;2.60;99.90;;;;;;5029032;28;20076;-73
2023/02/09 10:04:14;;;;;;;14.18;9.20;;;2.70;99.90;;;;;;5031124;28;20088;-74
2023/02/09 10:06:42;;;;;;;14.48;8.85;;;2.70;99.90;;;;;;5031106;28;20092;-73
2023/02/09 10:09:22;;;;;;;15.98;9.65;;;2.80;99.90;;;;;;5029703;28;20029;-73
2023/02/09 10:11:58;;;;;;;13.48;9.30;;;2.90;99.90;;;;;;5030645;28;20064;-73
2023/02/09 10:14:24;;;;;;;14.23;8.95;;;2.90;99.90;;;;;;5031319;28;20104;-73
2023/02/09 10:16:49;;;;;;;16.60;9.90;;;3.00;99.90;;;;;;5029664;28;20518;-73
2023/02/09 10:19:24;;;;;;;15.13;9.57;;;3.10;99.90;;;;;;5029574;28;20465;-73
2023/02/09 10:21:49;;;;;;;16.85;10.00;;;3.10;99.90;;;;;;5030860;28;20060;-73
2023/02/09 10:24:22;;;;;;;14.48;9.35;;;3.10;99.90;;;;;;5030753;28;20041;-74
2023/02/09 10:27:24;;;;;;;14.43;8.65;;;3.10;99.90;;;;;;5031022;28;20084;-74
2023/02/09 10:29:50;;;;;;;15.23;10.00;;;3.20;99.90;;;;;;5029823;28;20045;-74
2023/02/09 10:32:22;;;;;;;14.95;10.05;;;3.10;99.90;;;;;;5030589;28;20503;-74
2023/02/09 10:34:49;;;;;;;13.43;9.57;;;3.20;99.90;;;;;;5030701;28;20433;-73
2023/02/09 10:37:20;;;;;;;15.35;10.52;;;3.20;99.90;;;;;;5029501;28;20037;-73
2023/02/09 10:40:05;;;;;;;15.40;9.13;;;3.20;99.90;;;;;;5031115;28;20045;-74
2023/02/09 10:42:34;;;;;;;15.45;10.30;;;3.20;99.90;;;;;;5029783;28;20033;-73
2023/02/09 10:45:06;;;;;;;23.60;11.07;;;3.20;99.90;;;;;;5007752;28;20502;-74
2023/02/09 10:47:32;;;;;;;16.98;9.98;;;3.20;99.90;;;;;;5033730;28;20383;-73
2023/02/09 10:50:10;;;;;;;13.85;10.10;;;3.30;99.90;;;;;;5033414;28;20164;-74
2023/02/09 10:52:38;;;;;;;17.92;10.68;;;3.30;99.90;;;;;;5034241;28;20495;-74
2023/02/09 10:55:14;;;;;;;14.68;9.95;;;3.30;99.90;;;;;;5033117;28;20044;-73
2023/02/09 10:57:39;;;;;;;18.05;11.15;;;3.30;99.90;;;;;;5034314;28;20661;-73
2023/02/09 11:00:30;;;;;;;19.27;10.25;;;3.30;99.90;;;;;;5034444;28;20037;-73
2023/02/09 11:03:02;;;;;;;17.88;10.75;;;3.40;99.90;;;;;;5034151;28;20033;-74
2023/02/09 11:05:31;;;;;;;17.38;11.02;;;3.40;99.90;;;;;;5033084;28;20037;-73
2023/02/09 11:08:15;;;;;;;19.35;10.93;;;3.50;99.90;;;;;;5032499;28;20052;-74
2023/02/09 11:10:49;;;;;;;17.27;10.70;;;3.60;99.90;;;;;;5030699;28;20041;-74
2023/02/09 11:13:23;;;;;;;19.40;11.20;;;3.70;99.90;;;;;;5032885;28;20522;-74
2023/02/09 11:16:08;;;;;;;18.00;11.20;;;3.80;99.90;;;;;;5034127;28;20580;-74
2023/02/09 11:18:34;;;;;;;18.10;10.85;;;3.80;99.90;;;;;;5033027;28;20103;-74
2023/02/09 11:21:10;;;;;;;14.93;10.18;;;3.90;99.90;;;;;;5034127;28;20107;-74
2023/02/09 11:24:00;;;;;;;19.25;11.18;;;3.90;99.90;;;;;;5032362;28;20073;-74
2023/02/09 11:26:46;;;;;;;17.25;10.88;;;4.00;99.90;;;;;;5028542;28;20053;-74
2023/02/09 11:29:18;;;;;;;21.95;11.98;;;4.00;99.90;;;;;;5014310;28;20033;-74
2023/02/09 11:32:06;;;;;;;17.77;10.68;;;4.00;99.90;;;;;;5034019;28;20415;-74
2023/02/09 11:35:11;;;;;;;27.38;11.82;;;4.00;99.90;;;;;;5030494;28;20041;-74
2023/02/09 11:37:36;;;;;;;;;;;4.00;99.90;;;;;;5034146;28;20438;-74
2023/02/09 11:40:05;;;;;;;14.73;9.93;;;4.00;99.90;;;;;;5034311;28;19913;-73
2023/02/09 11:42:43;;;;;;;18.02;10.65;;;4.00;99.90;;;;;;5033457;28;20494;-74
2023/02/09 11:45:11;;;;;;;17.63;11.02;;;4.00;99.90;;;;;;5026324;28;20047;-73
2023/02/09 11:47:59;;;;;;;21.23;11.40;;;4.10;99.90;;;;;;5033449;28;20037;-73
2023/02/09 11:50:39;;;;;;;19.73;12.40;;;4.00;99.90;;;;;;5032595;28;20037;-74
2023/02/09 11:53:14;;;;;;;16.38;11.07;;;4.10;99.90;;;;;;5029041;28;20037;-73
2023/02/09 11:55:47;;;;;;;19.15;11.98;;;4.10;99.90;;;;;;5032354;28;20406;-74
2023/02/09 11:58:50;;;;;;;18.30;11.68;;;4.10;99.90;;;;;;5032000;28;20037;-74
2023/02/09 12:01:38;;;;;;;20.05;12.63;;;4.20;99.90;;;;;;5033536;28;20045;-74
2023/02/09 12:04:23;;;;;;;20.13;11.60;;;4.30;99.90;;;;;;5024818;28;20469;-74
2023/02/09 12:07:03;;;;;;;18.60;12.35;;;4.30;99.90;;;;;;5013337;28;20049;-74
2023/02/09 12:09:57;;;;;;;18.70;11.93;;;4.40;99.90;;;;;;5033225;28;20029;-74
2023/02/09 12:12:31;;;;;;;23.00;14.13;;;4.50;99.90;;;;;;5024600;28;20048;-73
2023/02/09 12:15:25;;;;;;;22.25;13.82;;;4.50;99.90;;;;;;5029415;28;20041;-73
2023/02/09 12:18:04;;;;;;;17.98;12.63;;;4.60;99.90;;;;;;5024551;28;20046;-74
2023/02/09 12:20:36;;;;;;;18.80;12.25;;;4.60;99.90;;;;;;5011629;28;20103;-75
2023/02/09 12:23:01;;;;;;;20.63;13.25;;;4.70;99.90;;;;;;5025408;28;20116;-72
2023/02/09 12:25:55;;;;;;;18.38;12.00;;;4.70;99.90;;;;;;5032697;28;20490;-72
2023/02/09 12:28:26;;;;;;;21.65;13.98;;;4.80;99.90;;;;;;5022284;28;20045;-72
2023/02/09 12:30:52;;;;;;;23.20;13.70;;;4.70;99.90;;;;;;5015197;28;20102;-72
2023/02/09 12:33:23;;;;;;;20.45;13.85;;;4.80;99.90;;;;;;5031343;28;20526;-72
2023/02/09 12:35:59;;;;;;;20.65;12.95;;;4.80;99.90;;;;;;5031514;28;20057;-72
2023/02/09 12:38:39;;;;;;;20.40;13.50;;;4.90;99.90;;;;;;5031638;28;20511;-72
2023/02/09 12:41:06;;;;;;;23.52;13.18;;;4.90;99.90;;;;;;5026217;28;20538;-72
2023/02/09 12:43:34;;;;;;;21.38;14.13;;;5.00;99.90;;;;;;5032320;28;20106;-72
2023/02/09 12:46:16;;;;;;;19.33;13.50;;;5.00;99.90;;;;;;5032463;28;20037;-72
2023/02/09 12:48:59;;;;;;;28.50;16.23;;;5.00;99.90;;;;;;5030262;28;20525;-72
2023/02/09 12:51:53;;;;;;;26.58;13.65;;;4.90;99.90;;;;;;5031460;28;20106;-72
2023/02/09 12:54:55;;;;;;;23.13;13.80;;;4.90;99.90;;;;;;5025772;28;20033;-72
2023/02/09 12:57:21;;;;;;;23.75;13.80;;;4.90;99.90;;;;;;5031029;28;20112;-72
2023/02/09 12:59:49;;;;;;;23.35;14.65;;;4.90;99.90;;;;;;5032290;28;20064;-72
2023/02/09 13:02:28;;;;;;;20.92;13.50;;;4.90;99.90;;;;;;5032126;28;20116;-72
2023/02/09 13:05:02;;;;;;;28.80;13.75;;;4.90;99.90;;;;;;5030820;28;20076;-72
2023/02/09 13:07:31;;;;;;;19.52;12.98;;;4.90;99.90;;;;;;5028459;28;20506;-72
2023/02/09 13:10:18;;;;;;;20.85;13.27;;;4.80;99.90;;;;;;5032021;28;20131;-72